Time;durP1;ratioP1;P1;durP2;ratioP2;P2;SDS_P1;SDS_P2;PMS_P1;PMS_P2;Temp;Humidity;BMP_temperature;BMP_pressure;BME280_temperature;BME280_humidity;BME280_pressure;Samples;Min_cycle;Max_cycle;Signal;HPM_P1;HPM_P2
2023/05/19 00:01:09;;;;;;;12.60;4.80;;;;;;;19.19;65.19;102557.00;5055968;28;20104;-52
2023/05/19 00:03:39;;;;;;;11.55;4.90;;;;;;;18.98;65.75;102556.19;5051458;28;20037;-49
2023/05/19 00:06:09;;;;;;;12.80;4.10;;;;;;;18.91;66.48;102558.88;5050703;28;20052;-55
2023/05/19 00:08:37;;;;;;;16.10;4.65;;;;;;;18.80;67.62;102558.66;5056813;28;20045;-51
2023/05/19 00:11:02;;;;;;;11.25;4.10;;;;;;;18.89;67.36;102557.41;5061241;28;20056;-52
2023/05/19 00:13:28;;;;;;;12.18;5.78;;;;;;;18.67;67.78;102563.03;5056655;28;20041;-48
2023/05/19 00:15:54;;;;;;;13.77;4.65;;;;;;;18.76;67.78;102550.97;5054974;28;20034;-50
2023/05/19 00:18:20;;;;;;;14.90;4.60;;;;;;;18.82;67.64;102556.56;5058324;28;20049;-48
2023/05/19 00:20:45;;;;;;;10.93;4.53;;;;;;;18.81;67.41;102550.34;5058179;28;20036;-51
2023/05/19 00:23:11;;;;;;;8.47;4.33;;;;;;;18.83;67.63;102544.69;5057281;28;20065;-51
2023/05/19 00:25:36;;;;;;;10.33;4.23;;;;;;;18.82;67.09;102540.31;5038579;28;20047;-55
2023/05/19 00:28:02;;;;;;;13.17;4.30;;;;;;;18.60;67.73;102543.22;5057288;28;20359;-50
2023/05/19 00:30:29;;;;;;;9.05;4.20;;;;;;;18.74;67.50;102534.06;5038805;28;20044;-54
2023/05/19 00:32:55;;;;;;;9.18;3.88;;;;;;;18.70;67.86;102530.13;5037207;28;20037;-55
2023/05/19 00:35:22;;;;;;;12.20;4.90;;;;;;;18.70;68.06;102527.41;5041748;28;20051;-52
2023/05/19 00:37:47;;;;;;;8.10;3.65;;;;;;;18.61;68.84;102523.22;5056134;28;20036;-52
2023/05/19 00:40:13;;;;;;;9.43;3.90;;;;;;;18.60;68.89;102530.53;5054567;28;20065;-52
2023/05/19 00:42:40;;;;;;;11.65;4.32;;;;;;;18.60;68.72;102525.13;5037271;28;20289;-55
2023/05/19 00:45:05;;;;;;;10.43;4.50;;;;;;;18.62;68.73;102530.31;5056986;28;20092;-53
2023/05/19 00:47:32;;;;;;;7.10;4.13;;;;;;;18.49;69.21;102531.13;5039037;28;20040;-53
2023/05/19 00:49:58;;;;;;;7.60;4.72;;;;;;;18.42;69.82;102531.13;5053835;28;20029;-50
2023/05/19 00:52:24;;;;;;;11.73;4.35;;;;;;;18.42;70.24;102531.13;5056923;28;20040;-50
2023/05/19 00:54:51;;;;;;;16.48;4.95;;;;;;;18.39;70.27;102534.25;5032046;28;20056;-50
2023/05/19 00:57:17;;;;;;;20.08;4.63;;;;;;;18.34;71.13;102537.59;5037052;28;20029;-55
2023/05/19 00:59:43;;;;;;;9.20;4.22;;;;;;;18.44;70.42;102531.75;5059713;28;20033;-50
2023/05/19 01:02:08;;;;;;;15.37;4.63;;;;;;;18.19;71.68;102536.94;5040901;28;20131;-54
2023/05/19 01:04:36;;;;;;;17.02;4.50;;;;;;;18.37;71.35;102530.91;5055748;28;20266;-51
2023/05/19 01:07:02;;;;;;;9.20;4.35;;;;;;;18.28;72.06;102530.28;5055718;28;20049;-51
2023/05/19 01:09:29;;;;;;;10.90;4.85;;;;;;;18.27;72.54;102533.22;5054807;28;20029;-52
2023/05/19 01:11:54;;;;;;;9.48;4.32;;;;;;;18.25;72.81;102532.59;5055646;28;20034;-53
2023/05/19 01:14:20;;;;;;;11.43;4.83;;;;;;;18.25;73.00;102535.28;5057678;28;20076;-52
2023/05/19 01:17:04;;;;;;;14.80;5.22;;;;;;;18.18;74.12;102529.88;5054989;28;20041;-50
2023/05/19 01:19:45;;;;;;;11.55;4.78;;;;;;;17.92;75.92;102532.25;5055389;28;20061;-50
2023/05/19 01:22:47;;;;;;;14.05;4.97;;;;;;;18.30;74.73;102532.78;5054460;28;20033;-52
2023/05/19 01:25:46;;;;;;;9.25;3.95;;;;;;;18.17;75.07;102533.63;5024323;28;20041;-48
2023/05/19 01:28:24;;;;;;;15.23;4.85;;;;;;;17.77;78.13;102531.59;5037467;28;20048;-54
2023/05/19 01:30:54;;;;;;;16.83;4.85;;;;;;;17.94;78.42;102523.09;5050108;28;20033;-54
2023/05/19 01:33:22;;;;;;;14.75;4.85;;;;;;;17.78;79.67;102522.44;5057457;28;20045;-51
2023/05/19 01:35:49;;;;;;;13.20;5.43;;;;;;;17.81;79.59;102526.59;5056059;28;20029;-49
2023/05/19 01:38:18;;;;;;;10.50;4.90;;;;;;;17.83;79.93;102517.25;5036098;28;20033;-51
2023/05/19 01:40:46;;;;;;;9.93;4.47;;;;;;;17.83;79.98;102525.38;5053701;28;20029;-52
2023/05/19 01:43:17;;;;;;;13.48;5.18;;;;;;;17.56;81.31;102519.84;5055476;28;20041;-50
2023/05/19 01:45:43;;;;;;;11.80;5.38;;;;;;;17.56;82.45;102522.56;5035420;28;20029;-52
2023/05/19 01:48:10;;;;;;;19.92;5.15;;;;;;;17.42;84.46;102515.41;5055592;28;20044;-50
2023/05/19 01:50:38;;;;;;;12.30;5.63;;;;;;;17.46;84.49;102516.69;5037737;28;20559;-49
2023/05/19 01:53:03;;;;;;;13.05;4.63;;;;;;;17.48;84.35;102509.19;5036388;28;20021;-50
2023/05/19 01:55:29;;;;;;;13.20;5.28;;;;;;;17.52;84.38;102513.16;5055219;28;20044;-49
2023/05/19 01:58:33;;;;;;;16.30;6.03;;;;;;;17.51;84.07;102511.50;5053115;28;20037;-53
2023/05/19 02:01:24;;;;;;;13.27;4.82;;;;;;;17.39;85.30;102505.81;5040712;28;20054;-49
2023/05/19 02:03:53;;;;;;;14.75;5.85;;;;;;;17.32;87.38;102511.22;5049877;28;20022;-47
2023/05/19 02:07:06;;;;;;;15.10;6.00;;;;;;;17.34;87.46;102502.88;5036994;28;20064;-49
2023/05/19 02:09:50;;;;;;;14.00;4.85;;;;;;;17.47;86.79;102502.97;5041360;28;20048;-48
2023/05/19 02:12:34;;;;;;;18.23;6.35;;;;;;;17.06;89.86;102504.59;5039226;28;20033;-49
2023/05/19 02:15:10;;;;;;;13.00;5.05;;;;;;;17.10;91.42;102501.53;5053026;28;20032;-51
2023/05/19 02:17:41;;;;;;;16.00;5.53;;;;;;;17.00;92.23;102500.00;5041613;28;20029;-50
2023/05/19 02:20:08;;;;;;;11.57;5.57;;;;;;;17.12;91.14;102504.84;5034518;28;20030;-49
2023/05/19 02:22:35;;;;;;;15.45;5.68;;;;;;;16.99;92.78;102500.22;5039397;28;20243;-50
2023/05/19 02:25:01;;;;;;;13.15;5.70;;;;;;;17.10;92.25;102505.03;5055236;28;20032;-49
2023/05/19 02:27:27;;;;;;;14.95;6.80;;;;;;;16.87;94.50;102500.72;5059144;28;20045;-50
2023/05/19 02:29:52;;;;;;;10.60;5.33;;;;;;;16.90;93.56;102502.19;5050497;28;20064;-50
2023/05/19 02:32:19;;;;;;;11.63;5.33;;;;;;;17.00;93.67;102491.88;5031214;28;20039;-50
2023/05/19 02:34:45;;;;;;;18.33;5.15;;;;;;;17.19;91.60;102495.75;5059016;28;20267;-51
2023/05/19 02:37:14;;;;;;;9.67;4.70;;;;;;;17.13;92.13;102498.41;5059704;28;20049;-52
2023/05/19 02:39:41;;;;;;;10.70;5.10;;;;;;;17.08;92.07;102490.06;5053352;28;20061;-50
2023/05/19 02:42:06;;;;;;;11.98;5.22;;;;;;;17.08;92.03;102490.91;5029201;28;20041;-52
2023/05/19 02:44:32;;;;;;;12.43;5.07;;;;;;;16.90;94.11;102486.78;5032614;28;20041;-49
2023/05/19 02:46:57;;;;;;;11.98;5.07;;;;;;;17.10;92.02;102488.00;5030724;28;20053;-49
2023/05/19 02:49:23;;;;;;;11.23;4.13;;;;;;;17.16;91.59;102481.78;5031111;28;20030;-53
2023/05/19 02:51:48;;;;;;;17.73;5.90;;;;;;;17.09;92.50;102483.63;5058360;28;20278;-49
2023/05/19 02:54:14;;;;;;;16.42;5.40;;;;;;;17.03;91.86;102477.97;5033934;28;20052;-49
2023/05/19 02:56:39;;;;;;;14.03;5.53;;;;;;;17.00;93.20;102486.47;5039090;28;20063;-48
2023/05/19 02:59:05;;;;;;;16.27;5.67;;;;;;;16.96;92.19;102479.78;5049437;28;20278;-49
2023/05/19 03:01:31;;;;;;;27.25;7.10;;;;;;;17.02;93.49;102479.00;5050140;28;20064;-52
2023/05/19 03:03:57;;;;;;;13.57;5.85;;;;;;;17.29;90.80;102478.31;5052974;28;20108;-52
2023/05/19 03:06:23;;;;;;;18.95;6.88;;;;;;;17.24;91.46;102481.63;5054639;28;20064;-51
2023/05/19 03:08:49;;;;;;;20.17;5.80;;;;;;;16.88;94.17;102478.06;5052677;28;20049;-55
2023/05/19 03:11:15;;;;;;;14.20;5.15;;;;;;;17.08;93.38;102481.97;5055175;28;20037;-52
2023/05/19 03:13:41;;;;;;;14.07;6.38;;;;;;;17.06;92.91;102472.16;5049267;28;20057;-49
2023/05/19 03:16:06;;;;;;;18.77;6.43;;;;;;;17.18;91.81;102474.31;5052142;28;20033;-50
2023/05/19 03:18:33;;;;;;;14.70;5.60;;;;;;;17.20;92.00;102474.94;5031501;28;20350;-51
2023/05/19 03:20:59;;;;;;;17.73;6.20;;;;;;;17.18;91.85;102477.03;5055675;28;20343;-52
2023/05/19 03:23:25;;;;;;;13.00;5.40;;;;;;;17.04;93.55;102471.53;5034849;28;20033;-50
2023/05/19 03:25:53;;;;;;;13.20;6.25;;;;;;;17.11;93.56;102470.75;5035830;28;20141;-50
2023/05/19 03:28:18;;;;;;;14.48;5.85;;;;;;;17.20;92.06;102477.66;5037140;28;20056;-51
2023/05/19 03:30:44;;;;;;;15.27;6.70;;;;;;;17.13;92.20;102476.78;5053282;28;20029;-51
2023/05/19 03:33:15;;;;;;;24.92;6.22;;;;;;;16.98;93.71;102476.88;5034893;28;20055;-47
2023/05/19 03:35:43;;;;;;;15.13;6.15;;;;;;;17.01;95.00;102477.34;5035578;28;20029;-50
2023/05/19 03:38:09;;;;;;;16.58;6.53;;;;;;;17.21;92.84;102476.63;5053829;28;20048;-54
2023/05/19 03:40:35;;;;;;;17.15;6.38;;;;;;;17.20;92.94;102480.34;5036886;28;20041;-53
2023/05/19 03:43:08;;;;;;;17.35;6.35;;;;;;;17.21;92.48;102484.72;5040428;28;20045;-49
2023/05/19 03:45:41;;;;;;;14.43;6.63;;;;;;;16.94;95.04;102479.13;5033985;28;20045;-52
2023/05/19 03:48:27;;;;;;;16.10;5.95;;;;;;;16.91;95.19;102479.53;5054511;28;20064;-50
2023/05/19 03:51:11;;;;;;;13.25;6.15;;;;;;;17.16;93.72;102476.38;5059246;28;20108;-50
2023/05/19 03:53:37;;;;;;;22.20;6.60;;;;;;;17.42;90.83;102486.50;5041508;28;20037;-53
2023/05/19 03:56:03;;;;;;;18.75;7.93;;;;;;;17.36;89.22;102483.78;5037243;28;20037;-50
2023/05/19 03:58:28;;;;;;;18.08;5.88;;;;;;;17.18;91.74;102485.13;5055422;28;20113;-54
2023/05/19 04:00:54;;;;;;;14.85;5.72;;;;;;;16.86;95.55;102468.50;5046342;28;20057;-54
2023/05/19 04:03:20;;;;;;;11.93;6.15;;;;;;;17.28;92.55;102479.38;5051483;28;20090;-52
2023/05/19 04:05:45;;;;;;;15.30;6.90;;;;;;;16.95;95.05;102483.50;5059015;28;20106;-49
2023/05/19 04:08:11;;;;;;;13.88;6.22;;;;;;;16.86;96.01;102471.19;5058824;28;20061;-52
2023/05/19 04:10:36;;;;;;;17.83;6.37;;;;;;;16.97;95.15;102480.63;5057836;28;20060;-51
2023/05/19 04:13:02;;;;;;;16.63;6.57;;;;;;;16.81;96.72;102485.28;5039508;28;20040;-52
2023/05/19 04:15:28;;;;;;;13.15;5.95;;;;;;;16.97;96.88;102484.16;5058835;28;20041;-54
2023/05/19 04:17:54;;;;;;;16.73;7.18;;;;;;;17.15;94.76;102488.25;5063973;28;20036;-53
2023/05/19 04:20:20;;;;;;;20.75;8.23;;;;;;;17.27;94.40;102492.03;5041585;28;20049;-52
2023/05/19 04:22:45;;;;;;;18.07;8.20;;;;;;;17.00;97.99;102483.78;5064395;28;20025;-52
2023/05/19 04:25:11;;;;;;;20.63;6.70;;;;;;;17.10;96.25;102488.00;5059058;28;20097;-55
2023/05/19 04:27:38;;;;;;;16.73;6.93;;;;;;;17.12;96.19;102492.16;5038607;28;20041;-53
2023/05/19 04:30:05;;;;;;;18.83;7.60;;;;;;;16.84;97.85;102497.56;5044105;28;20029;-51
2023/05/19 04:32:30;;;;;;;17.77;7.63;;;;;;;16.70;99.94;102492.06;5043695;28;20035;-51
2023/05/19 04:34:57;;;;;;;13.50;7.13;;;;;;;16.66;100.00;102485.41;5035504;28;20101;-55
2023/05/19 04:37:25;;;;;;;21.52;6.80;;;;;;;16.63;100.00;102488.50;5026384;28;20056;-54
2023/05/19 04:39:51;;;;;;;18.45;7.15;;;;;;;16.88;98.84;102483.47;5043757;28;20041;-55
2023/05/19 04:42:18;;;;;;;18.38;6.68;;;;;;;16.88;100.00;102485.34;5041154;28;20025;-52
2023/05/19 04:44:44;;;;;;;14.82;6.80;;;;;;;17.24;96.69;102488.91;5041735;28;20064;-54
2023/05/19 04:47:10;;;;;;;18.10;6.10;;;;;;;17.32;95.70;102486.88;5048066;28;20032;-51
2023/05/19 04:49:37;;;;;;;16.42;7.80;;;;;;;17.20;94.79;102493.88;5042150;28;20048;-54
2023/05/19 04:52:05;;;;;;;20.70;7.30;;;;;;;17.69;91.89;102491.16;5058591;28;20029;-53
2023/05/19 04:54:33;;;;;;;25.27;10.30;;;;;;;17.19;97.02;102484.09;5041800;28;20041;-54
2023/05/19 04:56:59;;;;;;;27.90;9.00;;;;;;;17.37;95.95;102496.25;5060038;28;20030;-54
2023/05/19 04:59:27;;;;;;;21.13;7.63;;;;;;;17.15;96.14;102496.34;5041669;28;20047;-57
2023/05/19 05:01:54;;;;;;;17.42;7.38;;;;;;;16.94;100.00;102497.22;5040312;28;20029;-54
2023/05/19 05:04:20;;;;;;;18.77;6.97;;;;;;;17.00;99.17;102496.47;5041660;28;20061;-56
2023/05/19 05:06:47;;;;;;;16.65;7.13;;;;;;;17.16;97.85;102495.31;5044488;28;20096;-54
2023/05/19 05:09:15;;;;;;;12.93;7.35;;;;;;;17.32;96.55;102502.25;5045466;28;20049;-53
2023/05/19 05:11:41;;;;;;;17.35;7.63;;;;;;;17.39;95.63;102503.13;5040699;28;20100;-52
2023/05/19 05:14:07;;;;;;;;;;;;;;;17.44;95.51;102506.06;5045365;28;20033;-55
2023/05/19 05:16:33;;;;;;;14.07;5.97;;;;;;;17.29;97.03;102505.38;5037779;28;19917;-51
2023/05/19 05:19:00;;;;;;;19.85;7.45;;;;;;;17.23;97.38;102501.59;5042982;28;20056;-55
2023/05/19 05:21:26;;;;;;;;;;;;;;;17.38;96.71;102514.16;5042930;28;20033;-53
2023/05/19 05:23:52;;;;;;;18.02;7.28;;;;;;;17.33;98.08;102512.88;5042160;28;19913;-52
2023/05/19 05:26:23;;;;;;;18.42;7.35;;;;;;;17.40;97.22;102512.06;5039121;28;20033;-55
2023/05/19 05:28:53;;;;;;;17.67;7.25;;;;;;;17.34;98.29;102509.16;5037481;28;20034;-55
2023/05/19 05:31:19;;;;;;;16.88;7.57;;;;;;;17.95;95.45;102511.22;5041380;28;20025;-54
2023/05/19 05:33:44;;;;;;;16.40;7.07;;;;;;;17.67;95.46;102517.59;5040454;28;20041;-54
2023/05/19 05:36:12;;;;;;;19.55;8.32;;;;;;;17.75;94.19;102512.00;5037965;28;20045;-49
2023/05/19 05:38:38;;;;;;;19.40;7.90;;;;;;;17.82;93.86;102503.91;5043281;28;20064;-54
2023/05/19 05:41:04;;;;;;;16.92;6.90;;;;;;;17.89;93.19;102508.31;5038256;28;20033;-54
2023/05/19 05:43:31;;;;;;;14.35;6.45;;;;;;;17.77;94.77;102504.53;5038363;28;20029;-52
2023/05/19 05:45:59;;;;;;;16.95;7.50;;;;;;;17.93;92.75;102503.34;5038411;28;20026;-52
2023/05/19 05:48:25;;;;;;;13.10;6.33;;;;;;;17.88;93.72;102493.13;5041627;28;20026;-54
2023/05/19 05:50:52;;;;;;;19.40;7.33;;;;;;;18.30;90.12;102506.53;5058446;28;20053;-52
2023/05/19 05:53:24;;;;;;;13.57;5.80;;;;;;;18.25;90.31;102505.50;5028506;28;20071;-55
2023/05/19 05:55:52;;;;;;;15.60;7.03;;;;;;;18.97;86.71;102505.69;5039958;28;20045;-53
2023/05/19 05:58:20;;;;;;;16.75;6.80;;;;;;;18.90;82.75;102510.28;5042739;28;20028;-53
2023/05/19 06:00:48;;;;;;;16.23;7.10;;;;;;;18.43;85.26;102513.03;5036246;28;20034;-51
2023/05/19 06:03:13;;;;;;;31.75;8.43;;;;;;;18.58;84.77;102513.66;5042139;28;20100;-47
2023/05/19 06:05:39;;;;;;;16.90;7.57;;;;;;;18.69;84.09;102504.06;5035068;28;20044;-50
2023/05/19 06:08:05;;;;;;;20.60;8.70;;;;;;;19.52;79.33;102504.50;5060959;28;20053;-52
2023/05/19 06:10:31;;;;;;;20.53;8.77;;;;;;;20.19;73.29;102509.59;5057853;28;20086;-52
2023/05/19 06:12:57;;;;;;;16.15;8.32;;;;;;;20.49;70.90;102517.09;5040046;28;20034;-53
2023/05/19 06:15:24;;;;;;;18.67;8.38;;;;;;;20.08;72.71;102513.03;5042221;28;20120;-48
2023/05/19 06:18:13;;;;;;;16.20;8.38;;;;;;;19.93;72.50;102505.16;5042049;28;20048;-53
2023/05/19 06:20:38;;;;;;;20.93;8.67;;;;;;;19.86;73.56;102517.91;5057059;28;20034;-52
2023/05/19 06:23:04;;;;;;;21.45;7.63;;;;;;;20.04;72.78;102517.22;5054106;28;20033;-52
2023/05/19 06:25:30;;;;;;;15.60;7.60;;;;;;;20.02;71.33;102511.16;5038714;28;20025;-50
2023/05/19 06:27:56;;;;;;;17.30;7.47;;;;;;;20.11;71.44;102515.31;5038884;28;20013;-50
2023/05/19 06:30:22;;;;;;;19.20;7.78;;;;;;;20.30;70.88;102518.13;5036751;28;20025;-51
2023/05/19 06:33:05;;;;;;;21.27;8.30;;;;;;;20.52;69.58;102510.41;5040285;28;20029;-51
2023/05/19 06:35:31;;;;;;;20.45;6.57;;;;;;;20.41;69.00;102519.25;5035979;28;20041;-51
2023/05/19 06:37:57;;;;;;;17.67;6.15;;;;;;;20.45;67.50;102510.44;5042010;28;20045;-49
2023/05/19 06:40:22;;;;;;;17.27;6.90;;;;;;;20.71;66.77;102515.91;5037976;28;20033;-54
2023/05/19 06:42:48;;;;;;;21.08;8.05;;;;;;;20.82;66.66;102508.91;5040391;28;20041;-51
2023/05/19 06:45:20;;;;;;;16.33;6.70;;;;;;;20.68;65.76;102510.91;5036951;28;20044;-50
2023/05/19 06:47:48;;;;;;;16.70;7.83;;;;;;;21.04;65.38;102514.75;5038453;28;20258;-50
2023/05/19 06:50:14;;;;;;;;;;;;;;;21.19;63.94;102519.81;5033372;28;20276;-53
2023/05/19 06:52:41;;;;;;;16.25;6.88;;;;;;;21.41;63.20;102522.09;5036168;28;19931;-53
2023/05/19 06:55:07;;;;;;;15.73;7.07;;;;;;;21.77;61.39;102521.22;5058972;28;20032;-51
2023/05/19 06:57:34;;;;;;;14.27;5.97;;;;;;;21.48;61.32;102517.41;5043664;28;20029;-52
2023/05/19 07:00:01;;;;;;;17.08;7.15;;;;;;;21.68;61.69;102519.06;5040876;28;20341;-55
2023/05/19 07:02:26;;;;;;;16.17;6.37;;;;;;;21.75;60.97;102519.81;5036336;28;20040;-55
2023/05/19 07:04:52;;;;;;;20.90;7.13;;;;;;;21.78;61.00;102530.25;5034887;28;20473;-51
2023/05/19 07:07:20;;;;;;;12.33;6.70;;;;;;;21.83;60.30;102527.66;5016722;28;20046;-49
2023/05/19 07:09:46;;;;;;;19.10;8.23;;;;;;;21.74;60.60;102531.78;5040483;28;20290;-47
2023/05/19 07:12:12;;;;;;;19.02;6.65;;;;;;;21.72;60.13;102528.44;5032742;28;20054;-49
2023/05/19 07:14:37;;;;;;;18.85;7.35;;;;;;;21.63;60.22;102523.28;5037429;28;20037;-51
2023/05/19 07:17:03;;;;;;;14.73;7.72;;;;;;;21.85;60.83;102532.88;5034740;28;20038;-53
2023/05/19 07:19:32;;;;;;;16.37;7.73;;;;;;;21.77;60.25;102534.03;5018802;28;20030;-51
2023/05/19 07:21:58;;;;;;;15.38;7.88;;;;;;;21.99;60.63;102525.34;5033357;28;20271;-51
2023/05/19 07:24:26;;;;;;;;;;;;;;;21.97;60.20;102520.13;5034572;28;20765;-49
2023/05/19 07:26:52;;;;;;;14.85;7.38;;;;;;;21.89;61.29;102529.44;5040844;28;19917;-50
2023/05/19 07:29:18;;;;;;;18.23;7.38;;;;;;;21.92;60.70;102522.72;5038613;28;20033;-52
2023/05/19 07:31:43;;;;;;;15.75;7.30;;;;;;;21.94;59.54;102525.22;5038284;28;20042;-51
2023/05/19 07:34:09;;;;;;;16.73;7.07;;;;;;;22.20;58.91;102533.00;5040744;28;20101;-51
2023/05/19 07:36:34;;;;;;;15.88;6.55;;;;;;;22.24;58.72;102527.09;5034012;28;20045;-48
2023/05/19 07:39:00;;;;;;;11.75;5.57;;;;;;;22.37;57.86;102518.69;5038406;28;20034;-49
2023/05/19 07:41:26;;;;;;;9.97;5.10;;;;;;;22.33;56.93;102522.94;5036032;28;20042;-53
2023/05/19 07:43:51;;;;;;;17.80;6.33;;;;;;;22.54;57.06;102513.41;5033791;28;20164;-50
2023/05/19 07:46:16;;;;;;;15.10;7.23;;;;;;;22.68;56.67;102524.06;5037863;28;20097;-49
2023/05/19 07:48:42;;;;;;;12.60;6.13;;;;;;;22.66;56.18;102516.16;5037605;28;20045;-48
2023/05/19 07:51:09;;;;;;;11.43;4.57;;;;;;;22.76;55.47;102519.09;5036513;28;20061;-50
2023/05/19 07:53:37;;;;;;;14.57;5.23;;;;;;;22.88;54.95;102521.81;5039571;28;20263;-49
2023/05/19 07:56:04;;;;;;;13.10;5.83;;;;;;;23.15;53.49;102524.03;5033740;28;20272;-49
2023/05/19 07:58:29;;;;;;;12.20;6.22;;;;;;;23.30;52.54;102514.56;5036195;28;20294;-47
2023/05/19 08:00:57;;;;;;;16.60;6.20;;;;;;;23.36;52.07;102518.25;5036130;28;20057;-49
2023/05/19 08:03:23;;;;;;;;;;;;;;;23.49;50.74;102507.03;5038771;28;20275;-48
2023/05/19 08:05:48;;;;;;;16.83;6.97;;;;;;;23.53;49.99;102513.69;5039446;28;19931;-50
2023/05/19 08:08:15;;;;;;;16.85;7.05;;;;;;;24.02;49.22;102512.44;5041785;28;20049;-52
2023/05/19 08:10:41;;;;;;;22.00;6.87;;;;;;;23.91;48.52;102508.66;5059593;28;20055;-51
2023/05/19 08:13:07;;;;;;;13.18;5.50;;;;;;;24.02;48.14;102510.50;5059471;28;20291;-50
2023/05/19 08:15:32;;;;;;;18.27;5.95;;;;;;;23.88;48.07;102506.41;5055138;28;20048;-48
2023/05/19 08:17:58;;;;;;;11.70;6.03;;;;;;;24.09;47.96;102507.63;5061402;28;20034;-49
2023/05/19 08:20:23;;;;;;;15.77;6.30;;;;;;;24.12;46.97;102506.31;5054001;28;20124;-52
2023/05/19 08:22:49;;;;;;;13.85;5.65;;;;;;;23.97;47.02;102509.53;5056070;28;20053;-51
2023/05/19 08:25:15;;;;;;;20.15;6.07;;;;;;;24.22;46.88;102508.38;5049644;28;20132;-51
2023/05/19 08:27:41;;;;;;;10.85;4.57;;;;;;;24.43;46.75;102509.53;5052548;28;20049;-52
2023/05/19 08:30:06;;;;;;;13.37;3.77;;;;;;;24.24;46.69;102503.50;5060939;28;20097;-51
2023/05/19 08:32:32;;;;;;;10.50;3.07;;;;;;;24.36;45.94;102496.03;5063647;28;20326;-52
2023/05/19 08:34:58;;;;;;;11.30;3.07;;;;;;;24.58;45.59;102500.75;5063104;28;20271;-53
2023/05/19 08:37:23;;;;;;;9.27;3.27;;;;;;;24.53;45.64;102496.03;5060378;28;20045;-52
2023/05/19 08:39:49;;;;;;;7.15;2.75;;;;;;;24.49;45.00;102490.25;5055665;28;20157;-53
2023/05/19 08:42:14;;;;;;;10.90;3.15;;;;;;;24.94;44.11;102490.34;5061362;28;20058;-55
2023/05/19 08:44:42;;;;;;;8.18;2.67;;;;;;;24.89;43.43;102484.78;5058036;28;20033;-54
2023/05/19 08:47:12;;;;;;;10.83;2.47;;;;;;;24.86;43.21;102490.78;5055574;28;20045;-55
2023/05/19 08:49:46;;;;;;;11.43;2.20;;;;;;;24.80;42.99;102483.59;5059129;28;20029;-56
2023/05/19 08:52:31;;;;;;;7.17;1.97;;;;;;;24.85;42.72;102478.19;5061575;28;20093;-55
2023/05/19 08:55:08;;;;;;;8.47;3.27;;;;;;;25.17;41.96;102482.97;5055473;28;20029;-53
2023/05/19 08:57:35;;;;;;;17.75;3.85;;;;;;;25.46;40.95;102477.28;5057668;28;20029;-52
2023/05/19 09:00:08;;;;;;;15.43;3.57;;;;;;;25.76;40.95;102479.56;5058766;28;20075;-49
2023/05/19 09:02:36;;;;;;;7.70;2.00;;;;;;;25.57;40.56;102470.03;5049709;28;20057;-52
2023/05/19 09:05:03;;;;;;;8.97;1.97;;;;;;;26.11;40.26;102477.41;5058063;28;20041;-51
2023/05/19 09:07:33;;;;;;;13.00;2.90;;;;;;;26.16;40.30;102465.63;5057603;28;20105;-53
2023/05/19 09:10:00;;;;;;;10.33;2.33;;;;;;;26.42;39.64;102474.91;5059768;28;20051;-52
2023/05/19 09:12:25;;;;;;;15.13;3.13;;;;;;;26.40;39.39;102471.59;5056546;28;20048;-56
2023/05/19 09:14:51;;;;;;;19.50;3.78;;;;;;;26.60;39.04;102472.81;5060538;28;20048;-53
2023/05/19 09:17:17;;;;;;;13.52;2.72;;;;;;;26.64;39.16;102468.44;5058974;28;20038;-51
2023/05/19 09:19:46;;;;;;;9.13;2.20;;;;;;;26.65;37.84;102466.56;5059943;28;20052;-50
2023/05/19 09:22:14;;;;;;;12.17;3.00;;;;;;;26.62;37.43;102468.69;5054856;28;20037;-52
2023/05/19 09:24:40;;;;;;;23.83;3.70;;;;;;;26.45;37.72;102470.81;5058310;28;20071;-54
2023/05/19 09:27:06;;;;;;;8.02;2.00;;;;;;;26.71;36.52;102466.28;5054976;28;20030;-53
2023/05/19 09:29:31;;;;;;;8.55;2.22;;;;;;;27.13;36.29;102463.75;5060645;28;20397;-53
2023/05/19 09:32:00;;;;;;;6.47;2.05;;;;;;;27.36;36.35;102462.47;5056552;28;20535;-54
2023/05/19 09:34:26;;;;;;;8.53;2.40;;;;;;;27.77;35.39;102467.25;5053624;28;20033;-52
2023/05/19 09:36:52;;;;;;;8.23;1.67;;;;;;;28.22;33.73;102466.72;5054993;28;20448;-52
2023/05/19 09:39:20;;;;;;;7.80;1.97;;;;;;;28.94;33.37;102466.56;5054929;28;20051;-51
2023/05/19 09:41:46;;;;;;;7.67;1.67;;;;;;;28.84;33.94;102461.09;5058691;28;20036;-53
2023/05/19 09:44:20;;;;;;;12.80;1.90;;;;;;;29.07;32.74;102470.63;5055389;28;20122;-51
2023/05/19 09:46:52;;;;;;;9.00;2.20;;;;;;;29.98;31.70;102469.50;5060532;28;20033;-53
2023/05/19 09:49:21;;;;;;;10.27;2.10;;;;;;;30.53;30.43;102473.97;5061041;28;20092;-51
2023/05/19 09:51:57;;;;;;;6.77;1.77;;;;;;;31.13;29.49;102480.16;5058306;28;20057;-52
2023/05/19 09:54:24;;;;;;;7.95;1.83;;;;;;;31.65;28.85;102471.19;5055467;28;20056;-50
2023/05/19 09:57:04;;;;;;;11.13;2.07;;;;;;;31.88;29.28;102474.97;5054276;28;20048;-49
2023/05/19 09:59:30;;;;;;;8.55;2.28;;;;;;;32.57;28.09;102473.47;5057154;28;20089;-51
2023/05/19 10:01:58;;;;;;;11.50;1.70;;;;;;;32.59;27.91;102474.00;5058187;28;20036;-52
2023/05/19 10:04:25;;;;;;;6.70;1.75;;;;;;;32.77;27.29;102465.91;5056056;28;20028;-51
2023/05/19 10:06:52;;;;;;;8.25;2.65;;;;;;;32.31;27.57;102471.19;5057866;28;20059;-49
2023/05/19 10:09:26;;;;;;;10.00;2.22;;;;;;;32.12;27.36;102468.47;5061863;28;20117;-52
2023/05/19 10:11:53;;;;;;;6.28;2.42;;;;;;;31.75;27.99;102468.25;5057333;28;20063;-51
2023/05/19 10:14:23;;;;;;;9.93;2.30;;;;;;;32.13;27.64;102464.56;5054824;28;20025;-55
2023/05/19 10:16:50;;;;;;;6.13;1.85;;;;;;;32.83;26.49;102464.66;5061331;28;20094;-51
2023/05/19 10:19:16;;;;;;;7.05;1.60;;;;;;;33.56;25.58;102464.72;5056820;28;20036;-52
2023/05/19 10:21:41;;;;;;;6.10;2.22;;;;;;;33.72;25.42;102461.56;5054206;28;20056;-53
2023/05/19 10:24:07;;;;;;;14.88;2.40;;;;;;;34.62;24.76;102468.09;5056192;28;20104;-53
2023/05/19 10:26:34;;;;;;;9.27;2.13;;;;;;;34.64;25.34;102465.81;5058909;28;20074;-54
2023/05/19 10:29:01;;;;;;;8.52;2.17;;;;;;;35.11;25.29;102462.47;5058419;28;20056;-55
2023/05/19 10:31:27;;;;;;;7.95;1.92;;;;;;;35.22;24.69;102460.19;5056440;28;20029;-54
2023/05/19 10:34:17;;;;;;;14.73;2.72;;;;;;;35.93;23.54;102460.13;5059449;28;20033;-48
2023/05/19 10:36:46;;;;;;;8.55;2.13;;;;;;;35.78;22.80;102455.91;5053011;28;20178;-51
2023/05/19 10:39:20;;;;;;;9.38;2.53;;;;;;;36.09;22.98;102452.91;5055652;28;20041;-54
2023/05/19 10:42:07;;;;;;;7.50;2.00;;;;;;;36.60;22.17;102443.84;5058991;28;20055;-49
2023/05/19 10:44:45;;;;;;;6.82;2.10;;;;;;;37.04;21.74;102456.69;5061078;28;20029;-50
2023/05/19 10:47:10;;;;;;;8.27;2.40;;;;;;;37.50;21.77;102457.63;5058872;28;20060;-51
2023/05/19 10:49:36;;;;;;;6.07;2.22;;;;;;;36.30;21.63;102449.38;5060802;28;20049;-56
2023/05/19 10:52:03;;;;;;;4.50;1.58;;;;;;;36.79;21.25;102450.94;5055957;28;20037;-55
2023/05/19 10:54:44;;;;;;;8.15;2.10;;;;;;;37.38;21.02;102458.38;5054507;28;20064;-52
2023/05/19 10:57:16;;;;;;;7.18;2.03;;;;;;;38.08;20.69;102448.50;5055557;28;20033;-49
2023/05/19 10:59:45;;;;;;;6.55;2.03;;;;;;;38.69;19.91;102448.84;5057175;28;20037;-48
2023/05/19 11:02:41;;;;;;;9.82;3.30;;;;;;;39.00;20.31;102453.81;5055697;28;20044;-50
2023/05/19 11:05:13;;;;;;;8.35;1.90;;;;;;;39.11;19.10;102450.50;5059658;28;20037;-55
2023/05/19 11:07:43;;;;;;;4.95;1.90;;;;;;;39.30;19.88;102456.25;5051101;28;20041;-54
2023/05/19 11:10:12;;;;;;;8.10;4.22;;;;;;;38.23;20.51;102441.41;5055655;28;20045;-53
2023/05/19 11:12:41;;;;;;;12.48;4.13;;;;;;;38.01;21.18;102442.66;5059615;28;20066;-56
2023/05/19 11:15:15;;;;;;;12.05;5.10;;;;;;;37.63;21.56;102438.94;5056506;28;20048;-55
2023/05/19 11:17:41;;;;;;;7.85;2.88;;;;;;;38.98;20.12;102444.94;5052821;28;20029;-54
2023/05/19 11:20:11;;;;;;;6.82;1.90;;;;;;;39.39;19.55;102441.31;5058912;28;20033;-52
2023/05/19 11:22:38;;;;;;;10.27;5.10;;;;;;;40.24;19.47;102437.50;5057012;28;20029;-56
2023/05/19 11:25:04;;;;;;;10.40;2.20;;;;;;;41.28;18.52;102433.38;5053138;28;20025;-54